sensor_id;sensor_type;location;lat;lon;timestamp;pressure;altitude;pressure_sealevel;temperature;humidity
70072;BME280;57434;42.794;23.302;2023-04-05T00:00:39;95205.03;;;0.22;82.95
70072;BME280;57434;42.794;23.302;2023-04-05T00:01:41;95062.59;;;-0.71;82.85
70072;BME280;57434;42.794;23.302;2023-04-05T00:02:43;95210.78;;;0.28;82.78
70072;BME280;57434;42.794;23.302;2023-04-05T00:03:45;95195.81;;;0.13;82.65
70072;BME280;57434;42.794;23.302;2023-04-05T00:04:47;95186.69;;;0.16;82.81
70072;BME280;57434;42.794;23.302;2023-04-05T00:05:49;95059.84;;;-0.71;82.63
70072;BME280;57434;42.794;23.302;2023-04-05T00:06:51;95193.41;;;0.15;82.98
70072;BME280;57434;42.794;23.302;2023-04-05T00:07:54;95065.84;;;-0.60;83.13
70072;BME280;57434;42.794;23.302;2023-04-05T00:09:03;95212.00;;;0.27;83.08
70072;BME280;57434;42.794;23.302;2023-04-05T00:10:05;95202.19;;;0.26;83.00
70072;BME280;57434;42.794;23.302;2023-04-05T00:11:09;95194.59;;;0.30;82.80
70072;BME280;57434;42.794;23.302;2023-04-05T00:12:10;95145.28;;;0.03;82.71
70072;BME280;57434;42.794;23.302;2023-04-05T00:13:12;95181.84;;;0.20;83.06
70072;BME280;57434;42.794;23.302;2023-04-05T00:14:14;95190.38;;;0.25;82.66
70072;BME280;57434;42.794;23.302;2023-04-05T00:15:16;95195.09;;;0.25;83.12
70072;BME280;57434;42.794;23.302;2023-04-05T00:16:18;95060.41;;;-0.47;82.92
70072;BME280;57434;42.794;23.302;2023-04-05T00:17:20;95168.72;;;0.24;82.75
70072;BME280;57434;42.794;23.302;2023-04-05T00:18:22;95180.97;;;0.23;82.21
70072;BME280;57434;42.794;23.302;2023-04-05T00:19:25;95180.34;;;0.31;82.13
70072;BME280;57434;42.794;23.302;2023-04-05T00:20:27;95186.50;;;0.23;82.59
70072;BME280;57434;42.794;23.302;2023-04-05T00:21:29;95047.09;;;-0.65;82.46
70072;BME280;57434;42.794;23.302;2023-04-05T00:22:30;95175.75;;;0.12;82.40
70072;BME280;57434;42.794;23.302;2023-04-05T00:23:32;95190.91;;;0.20;82.65
70072;BME280;57434;42.794;23.302;2023-04-05T00:24:34;95179.97;;;0.17;82.73
70072;BME280;57434;42.794;23.302;2023-04-05T00:25:36;95166.22;;;0.00;83.37
70072;BME280;57434;42.794;23.302;2023-04-05T00:26:37;95205.44;;;0.08;82.98
70072;BME280;57434;42.794;23.302;2023-04-05T00:27:42;95182.47;;;0.11;82.85
70072;BME280;57434;42.794;23.302;2023-04-05T00:28:45;95182.28;;;0.18;83.02
70072;BME280;57434;42.794;23.302;2023-04-05T00:29:47;95190.38;;;0.25;82.91
70072;BME280;57434;42.794;23.302;2023-04-05T00:30:51;95186.69;;;0.16;82.47
70072;BME280;57434;42.794;23.302;2023-04-05T00:31:53;95157.63;;;-0.02;82.65
70072;BME280;57434;42.794;23.302;2023-04-05T00:32:54;95171.41;;;-0.02;82.98
70072;BME280;57434;42.794;23.302;2023-04-05T00:33:56;95182.59;;;0.08;83.28
70072;BME280;57434;42.794;23.302;2023-04-05T00:34:58;95179.97;;;0.17;83.35
70072;BME280;57434;42.794;23.302;2023-04-05T00:36:16;95184.16;;;0.21;83.55
70072;BME280;57434;42.794;23.302;2023-04-05T00:37:18;95185.97;;;-0.01;83.37
70072;BME280;57434;42.794;23.302;2023-04-05T00:38:21;95215.63;;;0.24;83.09
70072;BME280;57434;42.794;23.302;2023-04-05T00:39:23;95186.00;;;0.12;82.99
70072;BME280;57434;42.794;23.302;2023-04-05T00:40:25;95186.78;;;0.12;82.88
70072;BME280;57434;42.794;23.302;2023-04-05T00:41:27;95183.06;;;0.19;82.85
70072;BME280;57434;42.794;23.302;2023-04-05T00:42:29;95194.78;;;0.23;82.76
70072;BME280;57434;42.794;23.302;2023-04-05T00:43:30;95197.44;;;0.26;82.68
70072;BME280;57434;42.794;23.302;2023-04-05T00:44:32;95132.09;;;-0.18;82.67
70072;BME280;57434;42.794;23.302;2023-04-05T00:45:34;95203.56;;;0.18;83.22
70072;BME280;57434;42.794;23.302;2023-04-05T00:46:36;95147.03;;;-0.03;83.63
70072;BME280;57434;42.794;23.302;2023-04-05T00:47:40;95113.06;;;-0.29;83.68
70072;BME280;57434;42.794;23.302;2023-04-05T00:48:42;95129.94;;;-0.27;83.83
70072;BME280;57434;42.794;23.302;2023-04-05T00:49:45;95103.09;;;-0.39;83.98
70072;BME280;57434;42.794;23.302;2023-04-05T00:50:50;95186.41;;;0.26;83.88
70072;BME280;57434;42.794;23.302;2023-04-05T00:51:52;95163.94;;;0.12;83.81
70072;BME280;57434;42.794;23.302;2023-04-05T00:52:53;95155.00;;;0.08;83.68
70072;BME280;57434;42.794;23.302;2023-04-05T00:53:55;95074.06;;;-0.44;83.32
70072;BME280;57434;42.794;23.302;2023-04-05T00:54:57;95173.22;;;0.18;83.11
70072;BME280;57434;42.794;23.302;2023-04-05T00:55:59;95200.97;;;0.27;82.88
70072;BME280;57434;42.794;23.302;2023-04-05T00:57:01;95219.44;;;0.43;82.75
70072;BME280;57434;42.794;23.302;2023-04-05T00:58:03;95057.31;;;-0.49;82.77
70072;BME280;57434;42.794;23.302;2023-04-05T00:59:05;95194.16;;;0.44;82.73
70072;BME280;57434;42.794;23.302;2023-04-05T01:00:07;95181.91;;;0.32;82.82
70072;BME280;57434;42.794;23.302;2023-04-05T01:01:15;95196.06;;;0.47;82.84
70072;BME280;57434;42.794;23.302;2023-04-05T01:02:59;95201.25;;;0.45;82.83
70072;BME280;57434;42.794;23.302;2023-04-05T01:04:04;95084.66;;;-0.42;83.24
70072;BME280;57434;42.794;23.302;2023-04-05T01:05:18;95170.91;;;0.16;83.31
70072;BME280;57434;42.794;23.302;2023-04-05T01:08:01;95066.19;;;-0.58;82.98
70072;BME280;57434;42.794;23.302;2023-04-05T01:10:12;95202.28;;;0.22;83.11
70072;BME280;57434;42.794;23.302;2023-04-05T01:11:15;95053.00;;;-0.79;83.19
70072;BME280;57434;42.794;23.302;2023-04-05T01:12:20;95084.03;;;-0.62;83.64
70072;BME280;57434;42.794;23.302;2023-04-05T01:13:28;95059.28;;;-0.79;83.45
70072;BME280;57434;42.794;23.302;2023-04-05T01:14:30;95202.88;;;0.14;83.60
70072;BME280;57434;42.794;23.302;2023-04-05T01:15:31;95227.16;;;0.06;83.90
70072;BME280;57434;42.794;23.302;2023-04-05T01:16:33;95170.03;;;-0.10;83.88
70072;BME280;57434;42.794;23.302;2023-04-05T01:17:35;95196.03;;;0.06;83.72
70072;BME280;57434;42.794;23.302;2023-04-05T01:18:37;95078.56;;;-0.79;83.61
70072;BME280;57434;42.794;23.302;2023-04-05T01:19:39;95204.84;;;0.00;83.80
70072;BME280;57434;42.794;23.302;2023-04-05T01:20:45;95160.53;;;-0.21;83.68
70072;BME280;57434;42.794;23.302;2023-04-05T01:26:27;95211.13;;;0.01;84.22
70072;BME280;57434;42.794;23.302;2023-04-05T01:30:29;95060.41;;;-0.92;84.10
70072;BME280;57434;42.794;23.302;2023-04-05T01:31:41;95213.78;;;0.05;84.48
70072;BME280;57434;42.794;23.302;2023-04-05T01:35:19;95209.50;;;0.04;83.99
70072;BME280;57434;42.794;23.302;2023-04-05T01:36:33;95217.66;;;0.07;84.15
70072;BME280;57434;42.794;23.302;2023-04-05T01:41:18;95210.88;;;-0.05;84.04
70072;BME280;57434;42.794;23.302;2023-04-05T01:42:24;95146.69;;;-0.50;83.94
70072;BME280;57434;42.794;23.302;2023-04-05T01:43:25;95210.19;;;-0.09;84.21
70072;BME280;57434;42.794;23.302;2023-04-05T01:44:28;95214.31;;;-0.01;84.22
70072;BME280;57434;42.794;23.302;2023-04-05T01:45:29;95205.19;;;0.02;84.13
70072;BME280;57434;42.794;23.302;2023-04-05T01:46:31;95198.03;;;0.05;84.37
70072;BME280;57434;42.794;23.302;2023-04-05T01:47:33;95198.78;;;0.06;83.98
70072;BME280;57434;42.794;23.302;2023-04-05T01:48:35;95218.66;;;0.13;84.02
70072;BME280;57434;42.794;23.302;2023-04-05T01:49:37;95214.28;;;0.16;83.94
70072;BME280;57434;42.794;23.302;2023-04-05T01:50:39;95214.06;;;-0.06;83.75
70072;BME280;57434;42.794;23.302;2023-04-05T01:51:42;95203.28;;;-0.01;83.46
70072;BME280;57434;42.794;23.302;2023-04-05T01:52:43;95196.84;;;-0.10;83.53
70072;BME280;57434;42.794;23.302;2023-04-05T01:53:45;95189.69;;;-0.08;83.50
70072;BME280;57434;42.794;23.302;2023-04-05T01:54:47;95117.09;;;-0.62;83.56
70072;BME280;57434;42.794;23.302;2023-04-05T01:55:49;95202.25;;;-0.07;83.65
70072;BME280;57434;42.794;23.302;2023-04-05T01:56:50;95219.75;;;0.03;83.98
70072;BME280;57434;42.794;23.302;2023-04-05T01:57:54;95209.16;;;0.01;84.07
70072;BME280;57434;42.794;23.302;2023-04-05T01:58:56;95204.06;;;-0.00;84.02
70072;BME280;57434;42.794;23.302;2023-04-05T01:59:58;95200.88;;;0.01;84.06
70072;BME280;57434;42.794;23.302;2023-04-05T02:01:00;95219.88;;;0.12;83.89
70072;BME280;57434;42.794;23.302;2023-04-05T02:02:02;95217.47;;;0.14;83.51
70072;BME280;57434;42.794;23.302;2023-04-05T02:03:04;95154.41;;;-0.29;83.51
70072;BME280;57434;42.794;23.302;2023-04-05T02:04:06;95222.28;;;0.10;83.51
70072;BME280;57434;42.794;23.302;2023-04-05T02:05:08;95213.78;;;0.05;83.34
70072;BME280;57434;42.794;23.302;2023-04-05T02:06:10;95225.50;;;0.09;83.30
70072;BME280;57434;42.794;23.302;2023-04-05T02:07:12;95204.41;;;0.02;83.35
70072;BME280;57434;42.794;23.302;2023-04-05T02:08:14;95200.53;;;-0.01;83.20
70072;BME280;57434;42.794;23.302;2023-04-05T02:09:16;95217.81;;;0.16;83.30
70072;BME280;57434;42.794;23.302;2023-04-05T02:10:18;95210.47;;;0.10;83.02
70072;BME280;57434;42.794;23.302;2023-04-05T02:11:20;95213.88;;;0.01;83.35
70072;BME280;57434;42.794;23.302;2023-04-05T02:12:22;95215.81;;;0.17;83.45
70072;BME280;57434;42.794;23.302;2023-04-05T02:13:24;95216.69;;;0.14;83.59
70072;BME280;57434;42.794;23.302;2023-04-05T02:14:26;95209.19;;;0.14;83.28
70072;BME280;57434;42.794;23.302;2023-04-05T02:15:27;95219.78;;;0.16;83.60
70072;BME280;57434;42.794;23.302;2023-04-05T02:16:29;95218.19;;;0.02;84.49
70072;BME280;57434;42.794;23.302;2023-04-05T02:17:31;95171.88;;;-0.19;84.32
70072;BME280;57434;42.794;23.302;2023-04-05T02:18:33;95219.22;;;0.08;84.09
70072;BME280;57434;42.794;23.302;2023-04-05T02:19:35;95122.59;;;-0.46;83.88
70072;BME280;57434;42.794;23.302;2023-04-05T02:20:37;95220.84;;;0.06;83.70
70072;BME280;57434;42.794;23.302;2023-04-05T02:21:39;95222.94;;;0.01;84.38
70072;BME280;57434;42.794;23.302;2023-04-05T02:22:41;95094.09;;;-0.72;84.16
70072;BME280;57434;42.794;23.302;2023-04-05T02:23:43;95210.25;;;0.04;84.45
70072;BME280;57434;42.794;23.302;2023-04-05T02:24:44;95210.94;;;0.08;84.45
70072;BME280;57434;42.794;23.302;2023-04-05T02:25:46;95083.63;;;-0.77;84.28
70072;BME280;57434;42.794;23.302;2023-04-05T02:26:48;95214.47;;;0.09;84.32
70072;BME280;57434;42.794;23.302;2023-04-05T02:27:50;95222.88;;;0.18;84.09
70072;BME280;57434;42.794;23.302;2023-04-05T02:28:52;95213.94;;;0.14;84.00
70072;BME280;57434;42.794;23.302;2023-04-05T02:29:53;95213.88;;;0.01;84.04
70072;BME280;57434;42.794;23.302;2023-04-05T02:30:55;95226.50;;;0.15;83.90
70072;BME280;57434;42.794;23.302;2023-04-05T02:31:57;95218.22;;;0.15;83.52
70072;BME280;57434;42.794;23.302;2023-04-05T02:32:59;95099.63;;;-0.72;83.23
70072;BME280;57434;42.794;23.302;2023-04-05T02:34:01;95223.75;;;0.15;83.12
70072;BME280;57434;42.794;23.302;2023-04-05T02:35:03;95095.91;;;-0.66;82.60
70072;BME280;57434;42.794;23.302;2023-04-05T02:36:07;95131.28;;;-0.48;82.95
70072;BME280;57434;42.794;23.302;2023-04-05T02:37:09;95106.00;;;-0.75;82.76
70072;BME280;57434;42.794;23.302;2023-04-05T02:38:10;95224.63;;;0.12;82.88
70072;BME280;57434;42.794;23.302;2023-04-05T02:39:12;95217.56;;;0.11;82.89
70072;BME280;57434;42.794;23.302;2023-04-05T02:40:15;95249.78;;;0.14;82.89
70072;BME280;57434;42.794;23.302;2023-04-05T02:41:16;95217.75;;;0.04;82.63
70072;BME280;57434;42.794;23.302;2023-04-05T02:42:18;95192.81;;;-0.22;82.55
70072;BME280;57434;42.794;23.302;2023-04-05T02:43:20;95221.44;;;0.13;82.74
70072;BME280;57434;42.794;23.302;2023-04-05T02:44:22;95216.63;;;0.01;82.54
70072;BME280;57434;42.794;23.302;2023-04-05T02:45:24;95228.91;;;0.13;82.93
70072;BME280;57434;42.794;23.302;2023-04-05T02:46:26;95215.78;;;0.04;83.27
70072;BME280;57434;42.794;23.302;2023-04-05T02:47:27;95225.16;;;0.07;83.32
70072;BME280;57434;42.794;23.302;2023-04-05T02:48:29;95241.22;;;-0.05;83.32
70072;BME280;57434;42.794;23.302;2023-04-05T02:49:31;95230.34;;;0.05;82.96
70072;BME280;57434;42.794;23.302;2023-04-05T02:50:33;95237.59;;;-0.02;82.98
70072;BME280;57434;42.794;23.302;2023-04-05T02:51:35;95218.38;;;-0.05;83.13
70072;BME280;57434;42.794;23.302;2023-04-05T02:52:37;95198.38;;;-0.09;83.31
70072;BME280;57434;42.794;23.302;2023-04-05T02:53:39;95212.78;;;-0.02;83.49
70072;BME280;57434;42.794;23.302;2023-04-05T02:54:41;95225.59;;;0.05;83.72
70072;BME280;57434;42.794;23.302;2023-04-05T02:55:53;95217.94;;;-0.04;83.58
70072;BME280;57434;42.794;23.302;2023-04-05T02:56:56;95219.31;;;0.05;83.31
70072;BME280;57434;42.794;23.302;2023-04-05T02:57:58;95218.72;;;-0.03;83.23
70072;BME280;57434;42.794;23.302;2023-04-05T02:59:00;95216.81;;;-0.06;83.18
70072;BME280;57434;42.794;23.302;2023-04-05T03:00:03;95213.97;;;-0.03;83.35
70072;BME280;57434;42.794;23.302;2023-04-05T03:01:05;95245.50;;;-0.04;83.70
70072;BME280;57434;42.794;23.302;2023-04-05T03:02:08;95221.06;;;-0.18;83.70
70072;BME280;57434;42.794;23.302;2023-04-05T03:03:10;95209.50;;;-0.13;83.64
70072;BME280;57434;42.794;23.302;2023-04-05T03:04:12;95211.41;;;-0.10;83.68
70072;BME280;57434;42.794;23.302;2023-04-05T03:05:14;95206.66;;;-0.09;83.62
70072;BME280;57434;42.794;23.302;2023-04-05T03:06:16;95131.47;;;-0.71;83.71
70072;BME280;57434;42.794;23.302;2023-04-05T03:07:18;95236.03;;;-0.03;84.08
70072;BME280;57434;42.794;23.302;2023-04-05T03:08:20;95213.38;;;-0.10;83.80
70072;BME280;57434;42.794;23.302;2023-04-05T03:09:21;95195.59;;;-0.22;83.70
70072;BME280;57434;42.794;23.302;2023-04-05T03:10:23;95207.09;;;-0.11;83.87
70072;BME280;57434;42.794;23.302;2023-04-05T03:11:25;95189.19;;;-0.19;83.87
70072;BME280;57434;42.794;23.302;2023-04-05T03:12:27;95202.88;;;-0.15;83.84
70072;BME280;57434;42.794;23.302;2023-04-05T03:13:29;95190.63;;;-0.14;83.96
70072;BME280;57434;42.794;23.302;2023-04-05T03:14:31;95081.91;;;-0.87;84.17
70072;BME280;57434;42.794;23.302;2023-04-05T03:15:33;95204.84;;;-0.16;83.87
70072;BME280;57434;42.794;23.302;2023-04-05T03:16:35;95213.47;;;-0.14;83.84
70072;BME280;57434;42.794;23.302;2023-04-05T03:17:40;95205.53;;;-0.12;84.16
70072;BME280;57434;42.794;23.302;2023-04-05T03:18:42;95215.63;;;-0.05;84.30
70072;BME280;57434;42.794;23.302;2023-04-05T03:19:43;95209.31;;;-0.06;83.97
70072;BME280;57434;42.794;23.302;2023-04-05T03:20:46;95210.09;;;-0.05;84.01
70072;BME280;57434;42.794;23.302;2023-04-05T03:21:48;95235.94;;;0.01;83.83
70072;BME280;57434;42.794;23.302;2023-04-05T03:22:50;95085.53;;;-0.90;83.84
70072;BME280;57434;42.794;23.302;2023-04-05T03:23:52;95221.03;;;-0.02;83.48
70072;BME280;57434;42.794;23.302;2023-04-05T03:24:54;95219.50;;;-0.03;83.78
70072;BME280;57434;42.794;23.302;2023-04-05T03:26:00;95215.34;;;-0.11;84.10
70072;BME280;57434;42.794;23.302;2023-04-05T03:27:02;95217.72;;;-0.25;84.29
70072;BME280;57434;42.794;23.302;2023-04-05T03:28:05;95221.03;;;-0.02;84.40
70072;BME280;57434;42.794;23.302;2023-04-05T03:29:07;95097.84;;;-0.79;84.01
70072;BME280;57434;42.794;23.302;2023-04-05T03:30:09;95220.94;;;0.02;84.25
70072;BME280;57434;42.794;23.302;2023-04-05T03:31:12;95194.50;;;-0.12;83.94
70072;BME280;57434;42.794;23.302;2023-04-05T03:32:14;95235.50;;;0.02;83.75
70072;BME280;57434;42.794;23.302;2023-04-05T03:33:17;95218.28;;;-0.02;83.86
70072;BME280;57434;42.794;23.302;2023-04-05T03:34:19;95223.09;;;-0.06;83.76
70072;BME280;57434;42.794;23.302;2023-04-05T03:35:20;95200.53;;;-0.17;83.86
70072;BME280;57434;42.794;23.302;2023-04-05T03:36:23;95196.59;;;-0.16;83.58
70072;BME280;57434;42.794;23.302;2023-04-05T03:37:24;95205.53;;;-0.12;83.60
70072;BME280;57434;42.794;23.302;2023-04-05T03:38:26;95194.59;;;-0.15;83.85
70072;BME280;57434;42.794;23.302;2023-04-05T03:39:28;95216.38;;;-0.05;83.84
70072;BME280;57434;42.794;23.302;2023-04-05T03:40:31;95070.22;;;-1.08;83.22
70072;BME280;57434;42.794;23.302;2023-04-05T03:41:33;95216.72;;;-0.03;83.42
70072;BME280;57434;42.794;23.302;2023-04-05T03:42:35;95216.63;;;0.01;83.38
70072;BME280;57434;42.794;23.302;2023-04-05T03:43:37;95220.19;;;0.01;83.28
70072;BME280;57434;42.794;23.302;2023-04-05T03:44:39;95231.19;;;0.01;83.57
70072;BME280;57434;42.794;23.302;2023-04-05T03:45:41;95221.28;;;0.04;83.38
70072;BME280;57434;42.794;23.302;2023-04-05T03:46:44;95072.28;;;-0.95;83.46
70072;BME280;57434;42.794;23.302;2023-04-05T03:47:45;95212.00;;;-0.02;83.28
70072;BME280;57434;42.794;23.302;2023-04-05T03:48:47;95225.34;;;-0.01;83.39
70072;BME280;57434;42.794;23.302;2023-04-05T03:49:49;95233.63;;;-0.01;83.29
70072;BME280;57434;42.794;23.302;2023-04-05T03:50:51;95110.41;;;-0.94;83.25
70072;BME280;57434;42.794;23.302;2023-04-05T03:51:53;95223.63;;;-0.11;83.48
70072;BME280;57434;42.794;23.302;2023-04-05T03:52:55;95233.28;;;-0.03;83.67
70072;BME280;57434;42.794;23.302;2023-04-05T03:53:57;95203.84;;;-0.22;83.58
70072;BME280;57434;42.794;23.302;2023-04-05T03:54:59;95235.94;;;0.01;83.19
70072;BME280;57434;42.794;23.302;2023-04-05T03:56:01;95213.38;;;-0.10;82.80
70072;BME280;57434;42.794;23.302;2023-04-05T03:57:03;95235.50;;;0.02;82.84
70072;BME280;57434;42.794;23.302;2023-04-05T03:58:05;95245.13;;;0.11;83.22
70072;BME280;57434;42.794;23.302;2023-04-05T03:59:07;95098.53;;;-0.91;82.59
70072;BME280;57434;42.794;23.302;2023-04-05T04:00:10;95234.66;;;0.06;82.77
70072;BME280;57434;42.794;23.302;2023-04-05T04:01:12;95253.28;;;0.01;82.50
70072;BME280;57434;42.794;23.302;2023-04-05T04:02:14;95216.56;;;-0.12;82.88
70072;BME280;57434;42.794;23.302;2023-04-05T04:03:16;95210.28;;;-0.12;83.08
70072;BME280;57434;42.794;23.302;2023-04-05T04:04:17;95246.03;;;0.08;82.60
70072;BME280;57434;42.794;23.302;2023-04-05T04:05:20;95247.22;;;0.07;82.50
70072;BME280;57434;42.794;23.302;2023-04-05T04:06:22;95246.97;;;0.01;82.45
70072;BME280;57434;42.794;23.302;2023-04-05T04:07:23;95244.66;;;-0.01;82.50
70072;BME280;57434;42.794;23.302;2023-04-05T04:08:25;95088.38;;;-0.94;82.33
70072;BME280;57434;42.794;23.302;2023-04-05T04:09:27;95251.72;;;0.00;82.51
70072;BME280;57434;42.794;23.302;2023-04-05T04:10:29;95135.19;;;-0.78;82.59
70072;BME280;57434;42.794;23.302;2023-04-05T04:11:31;95251.72;;;0.00;82.64
70072;BME280;57434;42.794;23.302;2023-04-05T04:12:32;95156.34;;;-0.58;82.23
70072;BME280;57434;42.794;23.302;2023-04-05T04:13:34;95243.69;;;0.06;82.35
70072;BME280;57434;42.794;23.302;2023-04-05T04:14:36;95255.94;;;0.05;82.27
70072;BME280;57434;42.794;23.302;2023-04-05T04:15:38;95110.22;;;-0.87;82.16
70072;BME280;57434;42.794;23.302;2023-04-05T04:16:40;95247.66;;;0.05;82.34
70072;BME280;57434;42.794;23.302;2023-04-05T04:17:43;95202.16;;;-0.48;82.61
70072;BME280;57434;42.794;23.302;2023-04-05T04:18:45;95250.75;;;0.07;82.82
70072;BME280;57434;42.794;23.302;2023-04-05T04:19:46;95251.38;;;-0.02;82.53
70072;BME280;57434;42.794;23.302;2023-04-05T04:20:48;95221.31;;;-0.12;82.57
70072;BME280;57434;42.794;23.302;2023-04-05T04:21:50;95254.72;;;-0.10;82.88
70072;BME280;57434;42.794;23.302;2023-04-05T04:22:52;95256.19;;;-0.06;82.68
70072;BME280;57434;42.794;23.302;2023-04-05T04:23:53;95259.22;;;-0.00;82.78
70072;BME280;57434;42.794;23.302;2023-04-05T04:24:55;95253.28;;;0.01;82.79
70072;BME280;57434;42.794;23.302;2023-04-05T04:25:57;95231.91;;;-0.11;82.39
70072;BME280;57434;42.794;23.302;2023-04-05T04:26:59;95242.50;;;-0.09;82.40
70072;BME280;57434;42.794;23.302;2023-04-05T04:28:03;95243.09;;;-0.02;82.32
70072;BME280;57434;42.794;23.302;2023-04-05T04:29:05;95284.81;;;0.00;82.45
70072;BME280;57434;42.794;23.302;2023-04-05T04:30:09;95121.66;;;-0.88;82.17
70072;BME280;57434;42.794;23.302;2023-04-05T04:31:11;95141.56;;;-0.81;81.78
70072;BME280;57434;42.794;23.302;2023-04-05T04:32:14;95222.38;;;-0.22;82.25
70072;BME280;57434;42.794;23.302;2023-04-05T04:33:16;95255.06;;;-0.08;82.54
70072;BME280;57434;42.794;23.302;2023-04-05T04:34:18;95232.25;;;-0.09;82.21
70072;BME280;57434;42.794;23.302;2023-04-05T04:35:23;95130.97;;;-0.82;82.42
70072;BME280;57434;42.794;23.302;2023-04-05T04:36:25;95264.66;;;0.04;82.32
70072;BME280;57434;42.794;23.302;2023-04-05T04:37:27;95276.03;;;0.06;82.39
70072;BME280;57434;42.794;23.302;2023-04-05T04:38:29;95262.66;;;0.04;82.10
70072;BME280;57434;42.794;23.302;2023-04-05T04:39:30;95264.22;;;0.05;81.73
70072;BME280;57434;42.794;23.302;2023-04-05T04:40:34;95254.47;;;0.00;81.90
70072;BME280;57434;42.794;23.302;2023-04-05T04:41:36;95259.66;;;-0.02;81.87
70072;BME280;57434;42.794;23.302;2023-04-05T04:42:38;95111.50;;;-0.91;82.04
70072;BME280;57434;42.794;23.302;2023-04-05T04:43:40;95261.19;;;-0.01;81.53
70072;BME280;57434;42.794;23.302;2023-04-05T04:44:42;95141.81;;;-0.75;81.71
70072;BME280;57434;42.794;23.302;2023-04-05T04:45:48;95260.00;;;0.00;81.94
70072;BME280;57434;42.794;23.302;2023-04-05T04:46:50;95231.00;;;-0.20;82.07
70072;BME280;57434;42.794;23.302;2023-04-05T04:47:52;95265.06;;;0.02;82.10
70072;BME280;57434;42.794;23.302;2023-04-05T04:48:54;95284.63;;;0.08;82.11
70072;BME280;57434;42.794;23.302;2023-04-05T04:49:56;95243.78;;;0.02;82.32
70072;BME280;57434;42.794;23.302;2023-04-05T04:50:57;95215.88;;;-0.16;82.46
70072;BME280;57434;42.794;23.302;2023-04-05T04:51:59;95258.06;;;0.14;82.72
70072;BME280;57434;42.794;23.302;2023-04-05T04:53:01;95253.78;;;-0.04;82.50
70072;BME280;57434;42.794;23.302;2023-04-05T04:54:03;95250.84;;;0.04;82.24
70072;BME280;57434;42.794;23.302;2023-04-05T04:55:08;95245.25;;;0.07;82.36
70072;BME280;57434;42.794;23.302;2023-04-05T04:56:10;95210.47;;;-0.19;82.72
70072;BME280;57434;42.794;23.302;2023-04-05T04:57:12;95257.63;;;0.15;82.79
70072;BME280;57434;42.794;23.302;2023-04-05T04:58:16;95245.59;;;0.09;82.00
70072;BME280;57434;42.794;23.302;2023-04-05T04:59:17;95289.78;;;0.22;81.93
70072;BME280;57434;42.794;23.302;2023-04-05T05:00:21;95263.75;;;0.23;81.46
70072;BME280;57434;42.794;23.302;2023-04-05T05:01:23;95267.03;;;0.18;81.61
70072;BME280;57434;42.794;23.302;2023-04-05T05:02:26;95109.38;;;-0.84;82.14
70072;BME280;57434;42.794;23.302;2023-04-05T05:03:33;95264.59;;;0.20;82.60
70072;BME280;57434;42.794;23.302;2023-04-05T05:04:35;95252.41;;;0.05;82.10
70072;BME280;57434;42.794;23.302;2023-04-05T05:05:44;95259.59;;;0.15;82.07
70072;BME280;57434;42.794;23.302;2023-04-05T05:06:49;95262.72;;;0.17;81.73
70072;BME280;57434;42.794;23.302;2023-04-05T05:07:51;95285.50;;;0.05;81.51
70072;BME280;57434;42.794;23.302;2023-04-05T05:08:53;95293.66;;;0.24;81.52
70072;BME280;57434;42.794;23.302;2023-04-05T05:09:55;95252.44;;;0.17;81.36
70072;BME280;57434;42.794;23.302;2023-04-05T05:10:57;95251.25;;;0.18;81.22
70072;BME280;57434;42.794;23.302;2023-04-05T05:11:58;95258.91;;;0.27;81.38
70072;BME280;57434;42.794;23.302;2023-04-05T05:13:01;95262.88;;;0.26;81.20
70072;BME280;57434;42.794;23.302;2023-04-05T05:14:02;95244.59;;;0.16;81.48
70072;BME280;57434;42.794;23.302;2023-04-05T05:15:05;95245.47;;;0.13;81.68
70072;BME280;57434;42.794;23.302;2023-04-05T05:16:10;95260.13;;;0.26;81.54
70072;BME280;57434;42.794;23.302;2023-04-05T05:17:12;95217.34;;;-0.11;81.51
70072;BME280;57434;42.794;23.302;2023-04-05T05:18:13;95269.28;;;0.07;81.58
70072;BME280;57434;42.794;23.302;2023-04-05T05:19:15;95129.47;;;-0.71;82.03
70072;BME280;57434;42.794;23.302;2023-04-05T05:20:17;95273.22;;;0.22;82.26
70072;BME280;57434;42.794;23.302;2023-04-05T05:21:19;95115.72;;;-0.71;82.39
70072;BME280;57434;42.794;23.302;2023-04-05T05:22:21;95264.69;;;0.32;82.30
70072;BME280;57434;42.794;23.302;2023-04-05T05:23:23;95242.16;;;0.05;82.38
70072;BME280;57434;42.794;23.302;2023-04-05T05:24:25;95238.06;;;0.10;81.95
70072;BME280;57434;42.794;23.302;2023-04-05T05:25:27;95248.22;;;0.13;81.80
70072;BME280;57434;42.794;23.302;2023-04-05T05:26:30;95147.38;;;-0.46;81.24
70072;BME280;57434;42.794;23.302;2023-04-05T05:27:32;95252.88;;;0.32;81.47
70072;BME280;57434;42.794;23.302;2023-04-05T05:28:34;95279.09;;;0.24;81.71
70072;BME280;57434;42.794;23.302;2023-04-05T05:29:36;95260.38;;;0.31;81.31
70072;BME280;57434;42.794;23.302;2023-04-05T05:30:38;95281.13;;;0.36;81.44
70072;BME280;57434;42.794;23.302;2023-04-05T05:31:40;95271.00;;;0.46;80.83
70072;BME280;57434;42.794;23.302;2023-04-05T05:32:42;95265.56;;;0.42;80.68
70072;BME280;57434;42.794;23.302;2023-04-05T05:33:44;95211.75;;;-0.08;80.62
70072;BME280;57434;42.794;23.302;2023-04-05T05:34:45;95138.00;;;-0.49;80.50
70072;BME280;57434;42.794;23.302;2023-04-05T05:35:48;95137.38;;;-0.40;80.19
70072;BME280;57434;42.794;23.302;2023-04-05T05:36:50;95290.31;;;0.46;80.40
70072;BME280;57434;42.794;23.302;2023-04-05T05:37:52;95223.41;;;0.13;80.38
70072;BME280;57434;42.794;23.302;2023-04-05T05:38:54;95250.44;;;0.34;80.45
70072;BME280;57434;42.794;23.302;2023-04-05T05:39:56;95114.84;;;-0.51;79.68
70072;BME280;57434;42.794;23.302;2023-04-05T05:40:57;95240.75;;;0.42;79.28
70072;BME280;57434;42.794;23.302;2023-04-05T05:41:59;95259.00;;;0.52;79.27
70072;BME280;57434;42.794;23.302;2023-04-05T05:43:01;95266.88;;;0.66;79.47
70072;BME280;57434;42.794;23.302;2023-04-05T05:44:03;95260.47;;;0.57;79.33
70072;BME280;57434;42.794;23.302;2023-04-05T05:45:05;95266.22;;;0.62;78.48
70072;BME280;57434;42.794;23.302;2023-04-05T05:46:08;95264.34;;;0.59;78.61